sensor_id;sensor_type;location;lat;lon;timestamp;pressure;altitude;pressure_sealevel;temperature;humidity
60228;BME280;46091;46.512;6.626;2023-03-19T00:02:02;96822.03;;;15.09;42.24
60228;BME280;46091;46.512;6.626;2023-03-19T00:04:17;96826.00;;;15.00;42.53
60228;BME280;46091;46.512;6.626;2023-03-19T00:06:20;96833.41;;;14.98;42.55
60228;BME280;46091;46.512;6.626;2023-03-19T00:08:24;96828.53;;;14.95;43.03
60228;BME280;46091;46.512;6.626;2023-03-19T00:10:27;96822.81;;;14.92;43.23
60228;BME280;46091;46.512;6.626;2023-03-19T00:12:30;96821.63;;;14.88;43.23
60228;BME280;46091;46.512;6.626;2023-03-19T00:14:33;96820.22;;;14.85;43.47
60228;BME280;46091;46.512;6.626;2023-03-19T00:16:38;96832.31;;;14.81;43.63
60228;BME280;46091;46.512;6.626;2023-03-19T00:18:41;96827.81;;;14.81;43.83
60228;BME280;46091;46.512;6.626;2023-03-19T00:20:44;96826.41;;;14.79;44.13
60228;BME280;46091;46.512;6.626;2023-03-19T00:22:47;96840.97;;;14.76;44.07
60228;BME280;46091;46.512;6.626;2023-03-19T00:24:50;96841.78;;;14.77;44.44
60228;BME280;46091;46.512;6.626;2023-03-19T00:26:54;96834.84;;;14.76;44.54
60228;BME280;46091;46.512;6.626;2023-03-19T00:28:57;96828.72;;;14.75;44.74
60228;BME280;46091;46.512;6.626;2023-03-19T00:31:07;96828.13;;;14.73;44.81
60228;BME280;46091;46.512;6.626;2023-03-19T00:33:12;96837.13;;;14.72;44.70
60228;BME280;46091;46.512;6.626;2023-03-19T00:35:15;96835.69;;;14.70;45.11
60228;BME280;46091;46.512;6.626;2023-03-19T00:37:18;96833.63;;;14.72;45.11
60228;BME280;46091;46.512;6.626;2023-03-19T00:39:21;96832.00;;;14.71;45.24
60228;BME280;46091;46.512;6.626;2023-03-19T00:41:24;96836.50;;;14.70;45.25
60228;BME280;46091;46.512;6.626;2023-03-19T00:43:27;96827.72;;;14.70;45.39
60228;BME280;46091;46.512;6.626;2023-03-19T00:45:30;96829.19;;;14.66;45.82
60228;BME280;46091;46.512;6.626;2023-03-19T00:47:33;96837.19;;;14.66;45.88
60228;BME280;46091;46.512;6.626;2023-03-19T00:49:37;96836.16;;;14.67;45.78
60228;BME280;46091;46.512;6.626;2023-03-19T00:51:40;96839.41;;;14.69;45.96
60228;BME280;46091;46.512;6.626;2023-03-19T00:53:44;96838.38;;;14.70;45.98
60228;BME280;46091;46.512;6.626;2023-03-19T00:55:47;96836.72;;;14.69;46.05
60228;BME280;46091;46.512;6.626;2023-03-19T00:57:50;96835.09;;;14.68;46.43
60228;BME280;46091;46.512;6.626;2023-03-19T00:59:54;96840.44;;;14.68;46.54
60228;BME280;46091;46.512;6.626;2023-03-19T01:01:56;96829.78;;;14.68;46.69
60228;BME280;46091;46.512;6.626;2023-03-19T01:03:59;96829.19;;;14.66;46.36
60228;BME280;46091;46.512;6.626;2023-03-19T01:06:04;96833.72;;;14.65;46.77
60228;BME280;46091;46.512;6.626;2023-03-19T01:08:08;96829.41;;;14.64;46.43
60228;BME280;46091;46.512;6.626;2023-03-19T01:10:11;96833.47;;;14.67;46.75
60228;BME280;46091;46.512;6.626;2023-03-19T01:12:15;96824.91;;;14.65;46.76
60228;BME280;46091;46.512;6.626;2023-03-19T01:14:19;96836.59;;;14.64;47.06
60228;BME280;46091;46.512;6.626;2023-03-19T01:16:23;96823.28;;;14.64;46.98
60228;BME280;46091;46.512;6.626;2023-03-19T01:18:26;96823.06;;;14.65;47.08
60228;BME280;46091;46.512;6.626;2023-03-19T01:20:28;96830.81;;;14.67;46.92
60228;BME280;46091;46.512;6.626;2023-03-19T01:22:36;96824.25;;;14.69;47.25
60228;BME280;46091;46.512;6.626;2023-03-19T01:24:38;96813.81;;;14.68;47.21
60228;BME280;46091;46.512;6.626;2023-03-19T01:26:41;96822.63;;;14.68;47.23
60228;BME280;46091;46.512;6.626;2023-03-19T01:28:44;96816.47;;;14.68;47.59
60228;BME280;46091;46.512;6.626;2023-03-19T01:30:47;96821.22;;;14.66;47.78
60228;BME280;46091;46.512;6.626;2023-03-19T01:32:50;96819.59;;;14.65;47.65
60228;BME280;46091;46.512;6.626;2023-03-19T01:34:53;96814.28;;;14.65;47.61
60228;BME280;46091;46.512;6.626;2023-03-19T01:36:57;96820.63;;;14.64;47.98
60228;BME280;46091;46.512;6.626;2023-03-19T01:39:01;96817.97;;;14.64;48.04
60228;BME280;46091;46.512;6.626;2023-03-19T01:41:04;96814.09;;;14.60;47.86
60228;BME280;46091;46.512;6.626;2023-03-19T01:43:13;96819.41;;;14.60;48.21
60228;BME280;46091;46.512;6.626;2023-03-19T01:45:35;96809.00;;;14.58;47.92
60228;BME280;46091;46.512;6.626;2023-03-19T01:47:41;96815.78;;;14.54;48.03
60228;BME280;46091;46.512;6.626;2023-03-19T01:49:46;96815.78;;;14.54;48.29
60228;BME280;46091;46.512;6.626;2023-03-19T01:51:55;96818.09;;;14.50;48.56
60228;BME280;46091;46.512;6.626;2023-03-19T01:54:04;96815.41;;;14.50;48.62
60228;BME280;46091;46.512;6.626;2023-03-19T01:56:11;96807.44;;;14.50;48.37
60228;BME280;46091;46.512;6.626;2023-03-19T01:58:14;96805.59;;;14.51;48.43
60228;BME280;46091;46.512;6.626;2023-03-19T02:00:17;96809.66;;;14.53;48.73
60228;BME280;46091;46.512;6.626;2023-03-19T02:02:24;96804.13;;;14.55;48.76
60228;BME280;46091;46.512;6.626;2023-03-19T02:04:30;96807.59;;;14.55;48.51
60228;BME280;46091;46.512;6.626;2023-03-19T02:06:35;96810.25;;;14.55;48.47
60228;BME280;46091;46.512;6.626;2023-03-19T02:08:39;96811.28;;;14.54;48.76
60228;BME280;46091;46.512;6.626;2023-03-19T02:10:45;96812.47;;;14.59;48.69
60228;BME280;46091;46.512;6.626;2023-03-19T02:12:49;96815.34;;;14.57;48.76
60228;BME280;46091;46.512;6.626;2023-03-19T02:14:52;96818.81;;;14.57;48.49
60228;BME280;46091;46.512;6.626;2023-03-19T02:16:55;96819.47;;;14.53;48.82
60228;BME280;46091;46.512;6.626;2023-03-19T02:18:58;96822.38;;;14.51;49.08
60228;BME280;46091;46.512;6.626;2023-03-19T02:21:05;96810.47;;;14.54;48.80
60228;BME280;46091;46.512;6.626;2023-03-19T02:23:14;96821.34;;;14.52;48.78
60228;BME280;46091;46.512;6.626;2023-03-19T02:25:26;96827.91;;;14.50;49.22
60228;BME280;46091;46.512;6.626;2023-03-19T02:27:31;96825.25;;;14.50;48.97
60228;BME280;46091;46.512;6.626;2023-03-19T02:29:34;96816.66;;;14.48;49.25
60228;BME280;46091;46.512;6.626;2023-03-19T02:31:37;96817.69;;;14.47;49.28
60228;BME280;46091;46.512;6.626;2023-03-19T02:33:40;96814.22;;;14.46;49.07
60228;BME280;46091;46.512;6.626;2023-03-19T02:35:44;96813.38;;;14.46;49.00
60228;BME280;46091;46.512;6.626;2023-03-19T02:37:48;96814.22;;;14.46;49.21
60228;BME280;46091;46.512;6.626;2023-03-19T02:39:54;96818.72;;;14.46;49.18
60228;BME280;46091;46.512;6.626;2023-03-19T02:41:59;96821.38;;;14.46;49.01
60228;BME280;46091;46.512;6.626;2023-03-19T02:44:05;96824.84;;;14.46;49.31
60228;BME280;46091;46.512;6.626;2023-03-19T02:46:11;96829.34;;;14.46;49.11
60228;BME280;46091;46.512;6.626;2023-03-19T02:48:14;96823.22;;;14.45;49.00
60228;BME280;46091;46.512;6.626;2023-03-19T02:50:17;96824.03;;;14.46;48.98
60228;BME280;46091;46.512;6.626;2023-03-19T02:52:20;96830.97;;;14.47;48.91
60228;BME280;46091;46.512;6.626;2023-03-19T02:54:23;96825.66;;;14.47;48.94
60228;BME280;46091;46.512;6.626;2023-03-19T02:56:26;96819.53;;;14.46;48.97
60228;BME280;46091;46.512;6.626;2023-03-19T02:58:29;96826.47;;;14.47;49.27
60228;BME280;46091;46.512;6.626;2023-03-19T03:00:34;96821.16;;;14.47;49.07
60228;BME280;46091;46.512;6.626;2023-03-19T03:02:38;96821.16;;;14.47;48.93
60228;BME280;46091;46.512;6.626;2023-03-19T03:04:41;96821.59;;;14.44;49.04
60228;BME280;46091;46.512;6.626;2023-03-19T03:06:44;96825.06;;;14.45;49.34
60228;BME280;46091;46.512;6.626;2023-03-19T03:08:46;96826.91;;;14.44;49.14
60228;BME280;46091;46.512;6.626;2023-03-19T03:10:49;96822.41;;;14.45;49.00
60228;BME280;46091;46.512;6.626;2023-03-19T03:12:52;96818.94;;;14.44;48.94
60228;BME280;46091;46.512;6.626;2023-03-19T03:14:55;96823.22;;;14.45;48.96
60228;BME280;46091;46.512;6.626;2023-03-19T03:16:59;96819.94;;;14.43;49.23
60228;BME280;46091;46.512;6.626;2023-03-19T03:19:02;96817.91;;;14.45;49.11
60228;BME280;46091;46.512;6.626;2023-03-19T03:21:05;96816.88;;;14.46;49.05
60228;BME280;46091;46.512;6.626;2023-03-19T03:23:08;96812.94;;;14.49;48.92
60228;BME280;46091;46.512;6.626;2023-03-19T03:25:12;96819.09;;;14.49;48.89
60228;BME280;46091;46.512;6.626;2023-03-19T03:27:14;96818.09;;;14.50;48.86
60228;BME280;46091;46.512;6.626;2023-03-19T03:29:17;96819.94;;;14.50;49.26
60228;BME280;46091;46.512;6.626;2023-03-19T03:31:21;96821.75;;;14.49;49.33
60228;BME280;46091;46.512;6.626;2023-03-19T03:33:25;96814.78;;;14.48;49.10
60228;BME280;46091;46.512;6.626;2023-03-19T03:35:28;96819.31;;;14.48;49.09
60228;BME280;46091;46.512;6.626;2023-03-19T03:37:31;96826.47;;;14.47;49.34
60228;BME280;46091;46.512;6.626;2023-03-19T03:39:34;96822.19;;;14.46;49.20
60228;BME280;46091;46.512;6.626;2023-03-19T03:41:38;96830.16;;;14.46;49.36
60228;BME280;46091;46.512;6.626;2023-03-19T03:43:41;96824.03;;;14.46;49.03
60228;BME280;46091;46.512;6.626;2023-03-19T03:45:44;96824.25;;;14.44;49.04
60228;BME280;46091;46.512;6.626;2023-03-19T03:47:47;96828.53;;;14.45;49.04
60228;BME280;46091;46.512;6.626;2023-03-19T03:49:52;96827.50;;;14.46;49.16
60228;BME280;46091;46.512;6.626;2023-03-19T03:51:56;96829.72;;;14.49;48.94
60228;BME280;46091;46.512;6.626;2023-03-19T03:53:58;96825.44;;;14.48;49.01
60228;BME280;46091;46.512;6.626;2023-03-19T03:56:01;96827.28;;;14.48;49.19
60228;BME280;46091;46.512;6.626;2023-03-19T03:58:04;96822.78;;;14.48;49.13
60228;BME280;46091;46.512;6.626;2023-03-19T04:00:08;96827.69;;;14.51;49.03
60228;BME280;46091;46.512;6.626;2023-03-19T04:02:11;96830.13;;;14.53;49.01
60228;BME280;46091;46.512;6.626;2023-03-19T04:04:14;96835.66;;;14.51;49.27
60228;BME280;46091;46.512;6.626;2023-03-19T04:06:20;96832.38;;;14.49;49.34
60228;BME280;46091;46.512;6.626;2023-03-19T04:08:24;96834.03;;;14.50;49.13
60228;BME280;46091;46.512;6.626;2023-03-19T04:10:27;96836.06;;;14.48;49.38
60228;BME280;46091;46.512;6.626;2023-03-19T04:12:30;96839.56;;;14.49;49.31
60228;BME280;46091;46.512;6.626;2023-03-19T04:14:33;96846.53;;;14.50;49.46
60228;BME280;46091;46.512;6.626;2023-03-19T04:16:36;96843.03;;;14.49;49.46
60228;BME280;46091;46.512;6.626;2023-03-19T04:18:39;96845.69;;;14.49;49.43
60228;BME280;46091;46.512;6.626;2023-03-19T04:20:41;96846.53;;;14.50;49.42
60228;BME280;46091;46.512;6.626;2023-03-19T04:22:46;96847.53;;;14.49;49.34
60228;BME280;46091;46.512;6.626;2023-03-19T04:24:48;96836.28;;;14.47;49.20
60228;BME280;46091;46.512;6.626;2023-03-19T04:26:51;96846.72;;;14.48;49.23
60228;BME280;46091;46.512;6.626;2023-03-19T04:28:54;96840.38;;;14.49;49.04
60228;BME280;46091;46.512;6.626;2023-03-19T04:30:58;96838.31;;;14.51;49.05
60228;BME280;46091;46.512;6.626;2023-03-19T04:33:01;96836.25;;;14.53;48.84
60228;BME280;46091;46.512;6.626;2023-03-19T04:35:05;96829.31;;;14.52;48.93
60228;BME280;46091;46.512;6.626;2023-03-19T04:37:09;96833.81;;;14.52;48.90
60228;BME280;46091;46.512;6.626;2023-03-19T04:39:14;96834.84;;;14.51;49.15
60228;BME280;46091;46.512;6.626;2023-03-19T04:41:17;96845.28;;;14.52;48.94
60228;BME280;46091;46.512;6.626;2023-03-19T04:43:20;96838.31;;;14.51;49.07
60228;BME280;46091;46.512;6.626;2023-03-19T04:45:23;96848.53;;;14.54;49.38
60228;BME280;46091;46.512;6.626;2023-03-19T04:47:26;96844.84;;;14.55;49.20
60228;BME280;46091;46.512;6.626;2023-03-19T04:49:29;96848.31;;;14.56;49.30
60228;BME280;46091;46.512;6.626;2023-03-19T04:51:32;96848.97;;;14.51;49.48
60228;BME280;46091;46.512;6.626;2023-03-19T04:53:35;96839.19;;;14.45;49.69
60228;BME280;46091;46.512;6.626;2023-03-19T04:55:40;96845.34;;;14.39;50.12
60228;BME280;46091;46.512;6.626;2023-03-19T04:57:43;96846.97;;;14.40;49.92
60228;BME280;46091;46.512;6.626;2023-03-19T04:59:46;96857.59;;;14.40;49.96
60228;BME280;46091;46.512;6.626;2023-03-19T05:01:49;96856.78;;;14.40;50.04
60228;BME280;46091;46.512;6.626;2023-03-19T05:03:52;96860.06;;;14.42;50.20
60228;BME280;46091;46.512;6.626;2023-03-19T05:05:55;96847.56;;;14.42;50.10
60228;BME280;46091;46.512;6.626;2023-03-19T05:07:57;96847.56;;;14.42;50.19
60228;BME280;46091;46.512;6.626;2023-03-19T05:10:00;96862.72;;;14.42;50.41
60228;BME280;46091;46.512;6.626;2023-03-19T05:12:05;96853.09;;;14.41;50.41
60228;BME280;46091;46.512;6.626;2023-03-19T05:14:09;96848.59;;;14.41;50.52
60228;BME280;46091;46.512;6.626;2023-03-19T05:16:12;96862.31;;;14.38;50.43
60228;BME280;46091;46.512;6.626;2023-03-19T05:18:15;96855.56;;;14.36;50.40
60228;BME280;46091;46.512;6.626;2023-03-19T05:20:18;96855.56;;;14.36;50.84
60228;BME280;46091;46.512;6.626;2023-03-19T05:22:21;96853.34;;;14.33;50.84
60228;BME280;46091;46.512;6.626;2023-03-19T05:24:24;96860.31;;;14.34;50.78
60228;BME280;46091;46.512;6.626;2023-03-19T05:26:27;96859.28;;;14.35;50.75
60228;BME280;46091;46.512;6.626;2023-03-19T05:28:32;96858.47;;;14.34;50.83
60228;BME280;46091;46.512;6.626;2023-03-19T05:30:35;96858.47;;;14.34;50.75
60228;BME280;46091;46.512;6.626;2023-03-19T05:32:38;96860.09;;;14.35;51.07
60228;BME280;46091;46.512;6.626;2023-03-19T05:34:41;96857.44;;;14.35;51.12
60228;BME280;46091;46.512;6.626;2023-03-19T05:36:45;96860.09;;;14.35;50.85
60228;BME280;46091;46.512;6.626;2023-03-19T05:38:48;96850.91;;;14.31;50.91
60228;BME280;46091;46.512;6.626;2023-03-19T05:40:51;96849.06;;;14.32;50.94
60228;BME280;46091;46.512;6.626;2023-03-19T05:42:54;96853.78;;;14.30;51.26
60228;BME280;46091;46.512;6.626;2023-03-19T05:44:58;96854.59;;;14.30;51.06
60228;BME280;46091;46.512;6.626;2023-03-19T05:47:01;96866.06;;;14.31;51.23
60228;BME280;46091;46.512;6.626;2023-03-19T05:49:04;96854.81;;;14.28;51.09
60228;BME280;46091;46.512;6.626;2023-03-19T05:51:07;96852.97;;;14.29;51.17
60228;BME280;46091;46.512;6.626;2023-03-19T05:53:09;96852.75;;;14.31;51.39
60228;BME280;46091;46.512;6.626;2023-03-19T05:55:12;96855.41;;;14.31;51.36
60228;BME280;46091;46.512;6.626;2023-03-19T05:57:15;96860.53;;;14.32;51.33
60228;BME280;46091;46.512;6.626;2023-03-19T05:59:18;96864.22;;;14.31;51.11
60228;BME280;46091;46.512;6.626;2023-03-19T06:01:23;96862.38;;;14.32;51.38
60228;BME280;46091;46.512;6.626;2023-03-19T06:03:26;96870.94;;;14.34;51.14
60228;BME280;46091;46.512;6.626;2023-03-19T06:05:29;96865.41;;;14.35;51.14
60228;BME280;46091;46.512;6.626;2023-03-19T06:07:32;96870.72;;;14.35;51.29
60228;BME280;46091;46.512;6.626;2023-03-19T06:09:35;96871.53;;;14.36;51.18
60228;BME280;46091;46.512;6.626;2023-03-19T06:11:38;96874.78;;;14.38;51.15
60228;BME280;46091;46.512;6.626;2023-03-19T06:13:41;96863.16;;;14.39;51.19
60228;BME280;46091;46.512;6.626;2023-03-19T06:15:46;96866.63;;;14.39;51.18
60228;BME280;46091;46.512;6.626;2023-03-19T06:17:51;96866.63;;;14.39;51.18
60228;BME280;46091;46.512;6.626;2023-03-19T06:19:54;96873.56;;;14.40;50.81
60228;BME280;46091;46.512;6.626;2023-03-19T06:21:57;96873.94;;;14.44;50.78
60228;BME280;46091;46.512;6.626;2023-03-19T06:24:00;96884.59;;;14.44;51.06
60228;BME280;46091;46.512;6.626;2023-03-19T06:26:04;96878.03;;;14.46;50.80
60228;BME280;46091;46.512;6.626;2023-03-19T06:28:07;96879.06;;;14.45;50.70
60228;BME280;46091;46.512;6.626;2023-03-19T06:30:11;96883.78;;;14.50;50.60
60228;BME280;46091;46.512;6.626;2023-03-19T06:32:14;96887.25;;;14.50;50.53
60228;BME280;46091;46.512;6.626;2023-03-19T06:34:18;96887.84;;;14.52;50.62
60228;BME280;46091;46.512;6.626;2023-03-19T06:36:21;96890.06;;;14.55;50.76
60228;BME280;46091;46.512;6.626;2023-03-19T06:38:24;96881.03;;;14.56;50.49
60228;BME280;46091;46.512;6.626;2023-03-19T06:40:27;96891.47;;;14.58;50.33
60228;BME280;46091;46.512;6.626;2023-03-19T06:42:30;96894.94;;;14.59;50.23
60228;BME280;46091;46.512;6.626;2023-03-19T06:44:32;96891.88;;;14.62;50.52
60228;BME280;46091;46.512;6.626;2023-03-19T06:46:35;96894.31;;;14.63;50.40
60228;BME280;46091;46.512;6.626;2023-03-19T06:48:39;96903.69;;;14.66;50.13
60228;BME280;46091;46.512;6.626;2023-03-19T06:50:44;96899.78;;;14.68;50.31
60228;BME280;46091;46.512;6.626;2023-03-19T06:52:46;96891.59;;;14.70;49.95
60228;BME280;46091;46.512;6.626;2023-03-19T06:54:49;96901.00;;;14.72;50.05
60228;BME280;46091;46.512;6.626;2023-03-19T06:56:52;96904.47;;;14.73;49.97
60228;BME280;46091;46.512;6.626;2023-03-19T06:58:55;96898.94;;;14.74;49.90
60228;BME280;46091;46.512;6.626;2023-03-19T07:00:58;96892.56;;;14.75;50.07
60228;BME280;46091;46.512;6.626;2023-03-19T07:03:03;96903.00;;;14.77;50.05
60228;BME280;46091;46.512;6.626;2023-03-19T07:05:08;96902.19;;;14.76;50.06
60228;BME280;46091;46.512;6.626;2023-03-19T07:07:12;96910.75;;;14.78;49.79
60228;BME280;46091;46.512;6.626;2023-03-19T07:09:15;96908.31;;;14.77;49.83
60228;BME280;46091;46.512;6.626;2023-03-19T07:11:18;96910.97;;;14.77;49.84
60228;BME280;46091;46.512;6.626;2023-03-19T07:13:21;96919.56;;;14.79;49.91
60228;BME280;46091;46.512;6.626;2023-03-19T07:15:24;96916.47;;;14.82;49.72
60228;BME280;46091;46.512;6.626;2023-03-19T07:17:27;96920.97;;;14.81;49.74
60228;BME280;46091;46.512;6.626;2023-03-19T07:19:31;96918.75;;;14.78;49.68
60228;BME280;46091;46.512;6.626;2023-03-19T07:21:34;96934.69;;;14.85;49.73
60228;BME280;46091;46.512;6.626;2023-03-19T07:23:39;96936.31;;;14.86;49.79
60228;BME280;46091;46.512;6.626;2023-03-19T07:25:43;96933.47;;;14.81;49.65
60228;BME280;46091;46.512;6.626;2023-03-19T07:27:48;96932.59;;;14.87;49.53
60228;BME280;46091;46.512;6.626;2023-03-19T07:29:53;96937.94;;;14.87;49.69
60228;BME280;46091;46.512;6.626;2023-03-19T07:31:58;96941.41;;;14.88;49.51
60228;BME280;46091;46.512;6.626;2023-03-19T07:34:01;96946.50;;;14.89;49.70
60228;BME280;46091;46.512;6.626;2023-03-19T07:36:05;96946.50;;;14.89;49.74
60228;BME280;46091;46.512;6.626;2023-03-19T07:38:08;96950.81;;;14.90;49.24
60228;BME280;46091;46.512;6.626;2023-03-19T07:40:14;96950.22;;;14.88;49.68
60228;BME280;46091;46.512;6.626;2023-03-19T07:42:17;96955.97;;;14.85;49.60
60228;BME280;46091;46.512;6.626;2023-03-19T07:44:20;96954.72;;;14.88;49.50
60228;BME280;46091;46.512;6.626;2023-03-19T07:46:23;96955.53;;;14.88;49.44
60228;BME280;46091;46.512;6.626;2023-03-19T07:48:26;96959.22;;;14.87;49.81
60228;BME280;46091;46.512;6.626;2023-03-19T07:50:29;96967.44;;;14.85;49.82
60228;BME280;46091;46.512;6.626;2023-03-19T07:52:32;96962.91;;;14.86;49.81
60228;BME280;46091;46.512;6.626;2023-03-19T07:54:35;96969.28;;;14.85;49.56
60228;BME280;46091;46.512;6.626;2023-03-19T07:56:40;96965.00;;;14.84;49.49
60228;BME280;46091;46.512;6.626;2023-03-19T07:58:43;96968.66;;;14.83;49.88
60228;BME280;46091;46.512;6.626;2023-03-19T08:00:46;96967.66;;;14.84;49.80
60228;BME280;46091;46.512;6.626;2023-03-19T08:02:58;96968.47;;;14.84;49.57
60228;BME280;46091;46.512;6.626;2023-03-19T08:05:05;96968.66;;;14.83;49.82
60228;BME280;46091;46.512;6.626;2023-03-19T08:07:11;96968.66;;;14.83;49.96
60228;BME280;46091;46.512;6.626;2023-03-19T08:09:17;96970.31;;;14.84;49.70
60228;BME280;46091;46.512;6.626;2023-03-19T08:11:27;96971.53;;;14.81;49.83
60228;BME280;46091;46.512;6.626;2023-03-19T08:13:35;96967.03;;;14.82;49.98
60228;BME280;46091;46.512;6.626;2023-03-19T08:15:41;96964.22;;;14.77;49.68
60228;BME280;46091;46.512;6.626;2023-03-19T08:17:56;96975.66;;;14.77;49.89
60228;BME280;46091;46.512;6.626;2023-03-19T08:20:02;96979.75;;;14.80;50.04
60228;BME280;46091;46.512;6.626;2023-03-19T08:22:10;96988.75;;;14.79;49.85
60228;BME280;46091;46.512;6.626;2023-03-19T08:24:14;96982.25;;;14.75;49.87
60228;BME280;46091;46.512;6.626;2023-03-19T08:26:18;96988.75;;;14.79;50.19
60228;BME280;46091;46.512;6.626;2023-03-19T08:28:22;96998.59;;;14.78;49.92
60228;BME280;46091;46.512;6.626;2023-03-19T08:30:26;96992.44;;;14.78;50.02
60228;BME280;46091;46.512;6.626;2023-03-19T08:32:29;96990.00;;;14.76;50.15
60228;BME280;46091;46.512;6.626;2023-03-19T08:34:33;96987.56;;;14.75;50.31
60228;BME280;46091;46.512;6.626;2023-03-19T08:36:36;96986.75;;;14.74;50.24
60228;BME280;46091;46.512;6.626;2023-03-19T08:38:40;96994.72;;;14.74;50.21
60228;BME280;46091;46.512;6.626;2023-03-19T08:40:44;96989.63;;;14.73;50.23
60228;BME280;46091;46.512;6.626;2023-03-19T08:42:48;96991.25;;;14.74;50.42
60228;BME280;46091;46.512;6.626;2023-03-19T08:44:51;96991.03;;;14.75;50.43
60228;BME280;46091;46.512;6.626;2023-03-19T08:46:56;96996.13;;;14.77;50.40
60228;BME280;46091;46.512;6.626;2023-03-19T08:48:59;96999.84;;;14.76;50.21
60228;BME280;46091;46.512;6.626;2023-03-19T08:51:03;96996.13;;;14.77;50.50
60228;BME280;46091;46.512;6.626;2023-03-19T08:53:07;97012.53;;;14.74;50.35
60228;BME280;46091;46.512;6.626;2023-03-19T08:55:11;97009.88;;;14.74;50.57
60228;BME280;46091;46.512;6.626;2023-03-19T08:57:14;97016.03;;;14.74;50.36
60228;BME280;46091;46.512;6.626;2023-03-19T08:59:17;97014.41;;;14.73;50.68
60228;BME280;46091;46.512;6.626;2023-03-19T09:01:20;97017.25;;;14.72;50.77
60228;BME280;46091;46.512;6.626;2023-03-19T09:03:26;97012.75;;;14.72;50.83
60228;BME280;46091;46.512;6.626;2023-03-19T09:05:29;97013.56;;;14.73;50.79
60228;BME280;46091;46.512;6.626;2023-03-19T09:07:32;97017.25;;;14.72;50.62
60228;BME280;46091;46.512;6.626;2023-03-19T09:09:36;97012.94;;;14.71;50.81
60228;BME280;46091;46.512;6.626;2023-03-19T09:11:39;97013.38;;;14.68;50.89
60228;BME280;46091;46.512;6.626;2023-03-19T09:13:44;97014.19;;;14.68;51.12
60228;BME280;46091;46.512;6.626;2023-03-19T09:15:50;97010.94;;;14.66;51.00
60228;BME280;46091;46.512;6.626;2023-03-19T09:17:53;97004.22;;;14.64;51.36
60228;BME280;46091;46.512;6.626;2023-03-19T09:20:00;97010.13;;;14.66;51.36
60228;BME280;46091;46.512;6.626;2023-03-19T09:22:05;96996.22;;;14.64;51.54
60228;BME280;46091;46.512;6.626;2023-03-19T09:24:08;97002.16;;;14.66;51.62
60228;BME280;46091;46.512;6.626;2023-03-19T09:26:11;97001.50;;;14.70;51.67
60228;BME280;46091;46.512;6.626;2023-03-19T09:28:14;96992.88;;;14.75;51.57
60228;BME280;46091;46.512;6.626;2023-03-19T09:30:17;96996.97;;;14.77;51.50
60228;BME280;46091;46.512;6.626;2023-03-19T09:32:20;97000.66;;;14.76;51.84
60228;BME280;46091;46.512;6.626;2023-03-19T09:34:23;97001.03;;;14.80;52.02
60228;BME280;46091;46.512;6.626;2023-03-19T09:36:27;96998.16;;;14.81;51.63
60228;BME280;46091;46.512;6.626;2023-03-19T09:38:31;96996.94;;;14.84;51.58
60228;BME280;46091;46.512;6.626;2023-03-19T09:40:36;97002.63;;;14.88;52.05
60228;BME280;46091;46.512;6.626;2023-03-19T09:42:49;97002.19;;;14.91;51.92
60228;BME280;46091;46.512;6.626;2023-03-19T09:44:55;97005.03;;;14.96;52.08
60228;BME280;46091;46.512;6.626;2023-03-19T09:47:03;96994.75;;;14.99;51.91
60228;BME280;46091;46.512;6.626;2023-03-19T09:49:16;97001.72;;;15.00;51.99
60228;BME280;46091;46.512;6.626;2023-03-19T09:51:30;97006.22;;;15.00;51.87
60228;BME280;46091;46.512;6.626;2023-03-19T09:53:41;97014.00;;;15.01;52.15
60228;BME280;46091;46.512;6.626;2023-03-19T09:55:47;97000.69;;;15.01;51.81
60228;BME280;46091;46.512;6.626;2023-03-19T09:57:52;97003.13;;;15.03;51.89
60228;BME280;46091;46.512;6.626;2023-03-19T09:59:56;97004.59;;;14.99;52.00
60228;BME280;46091;46.512;6.626;2023-03-19T10:02:28;97001.13;;;14.98;52.14
60228;BME280;46091;46.512;6.626;2023-03-19T10:04:53;97005.41;;;14.99;52.22
60228;BME280;46091;46.512;6.626;2023-03-19T10:07:07;97002.53;;;15.01;51.97
60228;BME280;46091;46.512;6.626;2023-03-19T10:09:26;97003.56;;;15.00;52.33
60228;BME280;46091;46.512;6.626;2023-03-19T10:11:41;97000.53;;;14.96;52.19
60228;BME280;46091;46.512;6.626;2023-03-19T10:13:55;96998.13;;;14.88;52.42
60228;BME280;46091;46.512;6.626;2023-03-19T10:16:02;96997.13;;;14.82;52.16
60228;BME280;46091;46.512;6.626;2023-03-19T10:18:10;97001.22;;;14.85;52.52
60228;BME280;46091;46.512;6.626;2023-03-19T10:20:19;97008.53;;;14.90;52.24
60228;BME280;46091;46.512;6.626;2023-03-19T10:22:30;97006.69;;;14.90;52.13
60228;BME280;46091;46.512;6.626;2023-03-19T10:24:45;97003.00;;;14.91;52.37
60228;BME280;46091;46.512;6.626;2023-03-19T10:26:55;97005.22;;;14.94;52.48
60228;BME280;46091;46.512;6.626;2023-03-19T10:29:04;97001.56;;;14.95;52.51
60228;BME280;46091;46.512;6.626;2023-03-19T10:31:17;97005.63;;;14.98;52.21
60228;BME280;46091;46.512;6.626;2023-03-19T10:33:25;97002.16;;;14.97;52.29
60228;BME280;46091;46.512;6.626;2023-03-19T10:35:40;97002.56;;;14.94;52.30
60228;BME280;46091;46.512;6.626;2023-03-19T10:37:50;97012.22;;;14.95;52.58
60228;BME280;46091;46.512;6.626;2023-03-19T10:40:02;97006.25;;;14.93;52.47
60228;BME280;46091;46.512;6.626;2023-03-19T10:42:41;97009.94;;;14.92;52.56
60228;BME280;46091;46.512;6.626;2023-03-19T10:44:51;97015.06;;;14.94;52.56
60228;BME280;46091;46.512;6.626;2023-03-19T10:47:09;97004.28;;;14.82;52.64
60228;BME280;46091;46.512;6.626;2023-03-19T10:49:18;97009.22;;;14.78;52.52
60228;BME280;46091;46.512;6.626;2023-03-19T10:51:24;97008.84;;;14.75;52.85
60228;BME280;46091;46.512;6.626;2023-03-19T10:53:34;97006.19;;;14.75;52.68
60228;BME280;46091;46.512;6.626;2023-03-19T10:55:46;97009.22;;;14.78;52.74
60228;BME280;46091;46.512;6.626;2023-03-19T10:58:15;97011.06;;;14.78;52.79
60228;BME280;46091;46.512;6.626;2023-03-19T11:00:25;97005.75;;;14.78;52.87
60228;BME280;46091;46.512;6.626;2023-03-19T11:02:46;97003.53;;;14.75;52.59